PWSweather.com
Personal Weather Stations
Station Observations
WAIROAHB
Wairoa, Northern Hawkes Bay -NZ 4108

WairoaNorthern Hawkes Bay -NZ 4108

Lat: -39.04516934, Lon: 177.4263989

Elevation: 156

Station Type: WS3083

http://wairoa.net/weather/index.htm

High Low Average
Temperature 72.7°F22.6°C 60.1°F15.6°C 63.2°F17.3°C
Dew Point 62.1°F16.7°C 57.5°F14.2°C 59.8°F15.4°C
Winds 8.3 mph 13.4 kmh Calm Calm 2.0 mph E3.2 kmh E
Wind Gusts 15.9 mph25.6 kmh -- 6.0 mph9.7 kmh
Humidity 99% 68% 89%
Pressure 29.99 in1015.6 mb 29.87 in1011.5 mb -
Precipitation 0.14 in3.6 mm - -
Hour Temp Dew Point Humidity Winds Wind Gusts Pressure Precip Precip Rate Daily Precip Total
12:00 AM 61.3°F16.3°C 60.8°F16.0°C 98% 8.3 mph W13.4 kmh W 12.1 mph19.5 kmh 29.99 in1015.6 mb 0.00 in0.0 mm 0.00 in0.0 mm 0.00 in0.0 mm
12:10 AM 61.0°F16.1°C 60.4°F15.8°C 98% 5.4 mph W8.7 kmh W 11.4 mph18.3 kmh 29.99 in1015.6 mb 0.01 in0.3 mm 0.06 in1.5 mm 0.01 in0.3 mm
12:20 AM 60.8°F16.0°C 60.2°F15.7°C 98% 6.9 mph WSW11.1 kmh WSW 9.2 mph14.8 kmh 29.99 in1015.6 mb 0.01 in0.3 mm 0.00 in0.0 mm 0.01 in0.3 mm
12:30 AM 60.6°F15.9°C 60.4°F15.8°C 99% 6.0 mph W9.7 kmh W 10.7 mph17.2 kmh 29.98 in1015.2 mb 0.01 in0.3 mm 0.00 in0.0 mm 0.01 in0.3 mm
12:40 AM 60.4°F15.8°C 60.2°F15.7°C 99% 5.4 mph WSW8.7 kmh WSW 11.4 mph18.3 kmh 29.98 in1015.2 mb 0.01 in0.3 mm 0.00 in0.0 mm 0.01 in0.3 mm
12:50 AM 60.4°F15.8°C 60.2°F15.7°C 99% 3.1 mph WSW5.0 kmh WSW 10.7 mph17.2 kmh 29.98 in1015.2 mb 0.01 in0.3 mm 0.00 in0.0 mm 0.01 in0.3 mm
01:00 AM 60.4°F15.8°C 60.2°F15.7°C 99% 3.1 mph S5.0 kmh S 9.2 mph14.8 kmh 29.98 in1015.2 mb 0.01 in0.3 mm 0.00 in0.0 mm 0.01 in0.3 mm
01:10 AM 60.3°F15.7°C 60.0°F15.6°C 99% 2.2 mph SW3.5 kmh SW 8.3 mph13.4 kmh 29.97 in1014.9 mb 0.00 in0.0 mm 0.00 in0.0 mm 0.01 in0.3 mm
01:20 AM 60.3°F15.7°C 60.0°F15.6°C 99% 2.2 mph SW3.5 kmh SW 8.3 mph13.4 kmh 29.97 in1014.9 mb 0.00 in0.0 mm 0.00 in0.0 mm 0.01 in0.3 mm
01:30 AM 60.3°F15.7°C 60.0°F15.6°C 99% 3.8 mph S6.1 kmh S 5.4 mph8.7 kmh 29.97 in1014.9 mb 0.00 in0.0 mm 0.00 in0.0 mm 0.01 in0.3 mm
01:40 AM 60.3°F15.7°C 59.7°F15.4°C 98% 2.2 mph S3.5 kmh S 6.0 mph9.7 kmh 29.96 in1014.6 mb 0.00 in0.0 mm 0.00 in0.0 mm 0.01 in0.3 mm
01:50 AM 60.3°F15.7°C 59.7°F15.4°C 98% 3.8 mph E6.1 kmh E 10.7 mph17.2 kmh 29.97 in1014.9 mb 0.00 in0.0 mm 0.00 in0.0 mm 0.01 in0.3 mm
02:00 AM 60.3°F15.7°C 59.4°F15.2°C 97% Calm Calm 8.3 mph13.4 kmh 29.96 in1014.6 mb 0.00 in0.0 mm 0.00 in0.0 mm 0.01 in0.3 mm
02:10 AM 60.3°F15.7°C 59.1°F15.1°C 96% 0.7 mph SE1.1 kmh SE 9.2 mph14.8 kmh 29.96 in1014.6 mb 0.00 in0.0 mm 0.00 in0.0 mm 0.01 in0.3 mm
02:20 AM 60.3°F15.7°C 59.1°F15.1°C 96% 1.6 mph SSE2.6 kmh SSE 4.5 mph7.2 kmh 29.96 in1014.6 mb 0.00 in0.0 mm 0.00 in0.0 mm 0.01 in0.3 mm
02:30 AM 60.3°F15.7°C 59.1°F15.1°C 96% 0.7 mph S1.1 kmh S 5.4 mph8.7 kmh 29.96 in1014.6 mb 0.00 in0.0 mm 0.00 in0.0 mm 0.01 in0.3 mm
02:40 AM 60.1°F15.6°C 59.0°F15.0°C 96% 4.5 mph SSE7.2 kmh SSE 7.6 mph12.2 kmh 29.95 in1014.2 mb 0.00 in0.0 mm 0.00 in0.0 mm 0.01 in0.3 mm
02:50 AM 60.3°F15.7°C 58.8°F14.9°C 95% 3.1 mph NW5.0 kmh NW 6.9 mph11.1 kmh 29.95 in1014.2 mb 0.00 in0.0 mm 0.00 in0.0 mm 0.01 in0.3 mm
03:00 AM 60.3°F15.7°C 58.8°F14.9°C 95% Calm Calm 6.9 mph11.1 kmh 29.96 in1014.6 mb 0.00 in0.0 mm 0.00 in0.0 mm 0.01 in0.3 mm
03:10 AM 60.1°F15.6°C 58.7°F14.8°C 95% 2.2 mph SE3.5 kmh SE 6.9 mph11.1 kmh 29.96 in1014.6 mb 0.00 in0.0 mm 0.00 in0.0 mm 0.01 in0.3 mm
03:20 AM 60.1°F15.6°C 58.4°F14.7°C 94% 0.7 mph SE1.1 kmh SE 6.0 mph9.7 kmh 29.95 in1014.2 mb 0.00 in0.0 mm 0.00 in0.0 mm 0.01 in0.3 mm
03:30 AM 60.1°F15.6°C 58.4°F14.7°C 94% 2.2 mph NNW3.5 kmh NNW 8.3 mph13.4 kmh 29.95 in1014.2 mb 0.00 in0.0 mm 0.00 in0.0 mm 0.01 in0.3 mm
03:40 AM 60.1°F15.6°C 58.4°F14.7°C 94% Calm Calm 6.0 mph9.7 kmh 29.95 in1014.2 mb 0.00 in0.0 mm 0.00 in0.0 mm 0.01 in0.3 mm
03:50 AM 60.1°F15.6°C 58.1°F14.5°C 93% 1.6 mph SE2.6 kmh SE 4.5 mph7.2 kmh 29.95 in1014.2 mb 0.00 in0.0 mm 0.00 in0.0 mm 0.01 in0.3 mm
04:00 AM 60.1°F15.6°C 58.4°F14.7°C 94% 0.7 mph SE1.1 kmh SE 4.5 mph7.2 kmh 29.95 in1014.2 mb 0.00 in0.0 mm 0.00 in0.0 mm 0.01 in0.3 mm
04:10 AM 60.1°F15.6°C 58.4°F14.7°C 94% 3.1 mph SE5.0 kmh SE 5.4 mph8.7 kmh 29.96 in1014.6 mb 0.00 in0.0 mm 0.00 in0.0 mm 0.01 in0.3 mm
04:20 AM 60.1°F15.6°C 58.4°F14.7°C 94% Calm Calm 6.9 mph11.1 kmh 29.96 in1014.6 mb 0.00 in0.0 mm 0.00 in0.0 mm 0.01 in0.3 mm
04:30 AM 60.1°F15.6°C 58.4°F14.7°C 94% 3.8 mph ESE6.1 kmh ESE 5.4 mph8.7 kmh 29.96 in1014.6 mb 0.00 in0.0 mm 0.00 in0.0 mm 0.01 in0.3 mm
04:40 AM 60.1°F15.6°C 58.1°F14.5°C 93% Calm Calm 6.0 mph9.7 kmh 29.96 in1014.6 mb 0.00 in0.0 mm 0.00 in0.0 mm 0.01 in0.3 mm
04:50 AM 60.1°F15.6°C 58.1°F14.5°C 93% Calm Calm 2.2 mph3.5 kmh 29.96 in1014.6 mb 0.00 in0.0 mm 0.00 in0.0 mm 0.01 in0.3 mm
05:00 AM 60.1°F15.6°C 57.8°F14.3°C 92% Calm Calm -- 29.96 in1014.6 mb 0.00 in0.0 mm 0.00 in0.0 mm 0.01 in0.3 mm
05:10 AM 60.1°F15.6°C 57.8°F14.3°C 92% Calm Calm -- 29.96 in1014.6 mb 0.00 in0.0 mm 0.00 in0.0 mm 0.01 in0.3 mm
05:20 AM 60.1°F15.6°C 57.8°F14.3°C 92% Calm Calm -- 29.96 in1014.6 mb 0.00 in0.0 mm 0.00 in0.0 mm 0.01 in0.3 mm
05:30 AM 60.3°F15.7°C 57.9°F14.4°C 92% Calm Calm -- 29.96 in1014.6 mb 0.00 in0.0 mm 0.00 in0.0 mm 0.01 in0.3 mm
05:40 AM 60.3°F15.7°C 57.9°F14.4°C 92% Calm Calm -- 29.96 in1014.6 mb 0.00 in0.0 mm 0.00 in0.0 mm 0.01 in0.3 mm
05:50 AM 60.4°F15.8°C 57.8°F14.3°C 91% Calm Calm 3.8 mph6.1 kmh 29.96 in1014.6 mb 0.00 in0.0 mm 0.00 in0.0 mm 0.01 in0.3 mm
06:00 AM 60.4°F15.8°C 57.8°F14.3°C 91% Calm Calm -- 29.96 in1014.6 mb 0.00 in0.0 mm 0.00 in0.0 mm 0.01 in0.3 mm
06:10 AM 60.6°F15.9°C 58.0°F14.4°C 91% Calm Calm -- 29.96 in1014.6 mb 0.00 in0.0 mm 0.00 in0.0 mm 0.01 in0.3 mm
06:20 AM 60.8°F16.0°C 57.9°F14.4°C 90% Calm Calm 1.6 mph2.6 kmh 29.96 in1014.6 mb 0.00 in0.0 mm 0.00 in0.0 mm 0.01 in0.3 mm
06:30 AM 60.8°F16.0°C 57.6°F14.2°C 89% Calm Calm 2.2 mph3.5 kmh 29.96 in1014.6 mb 0.00 in0.0 mm 0.00 in0.0 mm 0.01 in0.3 mm
06:40 AM 61.2°F16.2°C 57.9°F14.4°C 89% Calm Calm 0.7 mph1.1 kmh 29.96 in1014.6 mb 0.00 in0.0 mm 0.00 in0.0 mm 0.01 in0.3 mm
06:50 AM 61.3°F16.3°C 57.8°F14.3°C 88% 0.7 mph SE1.1 kmh SE 3.8 mph6.1 kmh 29.96 in1014.6 mb 0.00 in0.0 mm 0.00 in0.0 mm 0.01 in0.3 mm
07:00 AM 61.5°F16.4°C 57.6°F14.2°C 87% Calm Calm 3.8 mph6.1 kmh 29.97 in1014.9 mb 0.00 in0.0 mm 0.00 in0.0 mm 0.01 in0.3 mm
07:10 AM 61.7°F16.5°C 57.5°F14.2°C 86% Calm Calm 6.9 mph11.1 kmh 29.97 in1014.9 mb 0.00 in0.0 mm 0.00 in0.0 mm 0.01 in0.3 mm
07:20 AM 62.1°F16.7°C 57.8°F14.3°C 86% 3.1 mph ESE5.0 kmh ESE 5.4 mph8.7 kmh 29.97 in1014.9 mb 0.00 in0.0 mm 0.00 in0.0 mm 0.01 in0.3 mm
07:30 AM 62.2°F16.8°C 58.0°F14.4°C 86% Calm Calm 4.5 mph7.2 kmh 29.97 in1014.9 mb 0.00 in0.0 mm 0.00 in0.0 mm 0.01 in0.3 mm
07:40 AM 62.2°F16.8°C 58.3°F14.6°C 87% Calm Calm 4.5 mph7.2 kmh 29.97 in1014.9 mb 0.00 in0.0 mm 0.00 in0.0 mm 0.01 in0.3 mm
07:50 AM 62.4°F16.9°C 58.8°F14.9°C 88% 0.7 mph ESE1.1 kmh ESE 3.1 mph5.0 kmh 29.97 in1014.9 mb 0.00 in0.0 mm 0.00 in0.0 mm 0.01 in0.3 mm
08:00 AM 62.4°F16.9°C 58.8°F14.9°C 88% 3.1 mph ESE5.0 kmh ESE 4.5 mph7.2 kmh 29.97 in1014.9 mb 0.00 in0.0 mm 0.00 in0.0 mm 0.01 in0.3 mm
08:10 AM 62.8°F17.1°C 58.2°F14.6°C 85% Calm Calm 4.5 mph7.2 kmh 29.97 in1014.9 mb 0.00 in0.0 mm 0.00 in0.0 mm 0.01 in0.3 mm
08:20 AM 63.7°F17.6°C 59.1°F15.1°C 85% 3.1 mph E5.0 kmh E 6.0 mph9.7 kmh 29.97 in1014.9 mb 0.00 in0.0 mm 0.00 in0.0 mm 0.01 in0.3 mm
08:30 AM 63.0°F17.2°C 58.7°F14.8°C 86% 0.7 mph ENE1.1 kmh ENE 6.0 mph9.7 kmh 29.97 in1014.9 mb 0.00 in0.0 mm 0.00 in0.0 mm 0.01 in0.3 mm
08:40 AM 63.3°F17.4°C 59.1°F15.1°C 86% 3.1 mph ENE5.0 kmh ENE 5.4 mph8.7 kmh 29.97 in1014.9 mb 0.00 in0.0 mm 0.00 in0.0 mm 0.01 in0.3 mm
08:50 AM 63.9°F17.7°C 59.0°F15.0°C 84% Calm Calm 5.4 mph8.7 kmh 29.96 in1014.6 mb 0.00 in0.0 mm 0.00 in0.0 mm 0.01 in0.3 mm
09:10 AM 64.8°F18.2°C 59.5°F15.3°C 83% Calm Calm 3.8 mph6.1 kmh 29.96 in1014.6 mb 0.00 in0.0 mm 0.00 in0.0 mm 0.01 in0.3 mm
09:20 AM 65.5°F18.6°C 59.2°F15.1°C 80% Calm Calm 5.4 mph8.7 kmh 29.96 in1014.6 mb 0.00 in0.0 mm 0.00 in0.0 mm 0.01 in0.3 mm
09:30 AM 66.4°F19.1°C 59.3°F15.2°C 78% 2.2 mph SE3.5 kmh SE 3.8 mph6.1 kmh 29.96 in1014.6 mb 0.00 in0.0 mm 0.00 in0.0 mm 0.01 in0.3 mm
09:40 AM 67.5°F19.7°C 59.3°F15.2°C 75% 2.2 mph ESE3.5 kmh ESE 6.9 mph11.1 kmh 29.96 in1014.6 mb 0.00 in0.0 mm 0.00 in0.0 mm 0.01 in0.3 mm
09:50 AM 65.7°F18.7°C 58.3°F14.6°C 77% 3.1 mph SE5.0 kmh SE 7.6 mph12.2 kmh 29.96 in1014.6 mb 0.00 in0.0 mm 0.00 in0.0 mm 0.01 in0.3 mm
10:00 AM 65.7°F18.7°C 59.0°F15.0°C 79% 3.8 mph SE6.1 kmh SE 7.6 mph12.2 kmh 29.96 in1014.6 mb 0.00 in0.0 mm 0.00 in0.0 mm 0.01 in0.3 mm
10:10 AM 65.7°F18.7°C 59.3°F15.2°C 80% 3.1 mph ESE5.0 kmh ESE 6.9 mph11.1 kmh 29.96 in1014.6 mb 0.00 in0.0 mm 0.00 in0.0 mm 0.01 in0.3 mm
10:20 AM 65.1°F18.4°C 58.8°F14.9°C 80% 2.2 mph SE3.5 kmh SE 7.6 mph12.2 kmh 29.96 in1014.6 mb 0.00 in0.0 mm 0.00 in0.0 mm 0.01 in0.3 mm
10:30 AM 65.7°F18.7°C 59.7°F15.4°C 81% 3.8 mph SE6.1 kmh SE 6.9 mph11.1 kmh 29.96 in1014.6 mb 0.00 in0.0 mm 0.00 in0.0 mm 0.01 in0.3 mm
10:40 AM 64.9°F18.3°C 59.0°F15.0°C 81% 2.2 mph ENE3.5 kmh ENE 9.2 mph14.8 kmh 29.96 in1014.6 mb 0.01 in0.3 mm 0.06 in1.5 mm 0.02 in0.5 mm
10:50 AM 64.9°F18.3°C 59.0°F15.0°C 81% 2.2 mph SE3.5 kmh SE 7.6 mph12.2 kmh 29.96 in1014.6 mb 0.01 in0.3 mm 0.00 in0.0 mm 0.02 in0.5 mm
11:00 AM 65.8°F18.8°C 59.9°F15.5°C 81% 3.1 mph E5.0 kmh E 6.9 mph11.1 kmh 29.95 in1014.2 mb 0.01 in0.3 mm 0.00 in0.0 mm 0.02 in0.5 mm
11:10 AM 66.7°F19.3°C 60.0°F15.6°C 79% 3.1 mph ESE5.0 kmh ESE 6.9 mph11.1 kmh 29.95 in1014.2 mb 0.01 in0.3 mm 0.00 in0.0 mm 0.02 in0.5 mm
11:20 AM 67.8°F19.9°C 60.4°F15.8°C 77% 2.2 mph ESE3.5 kmh ESE 6.9 mph11.1 kmh 29.95 in1014.2 mb 0.01 in0.3 mm 0.00 in0.0 mm 0.02 in0.5 mm
11:30 AM 68.9°F20.5°C 60.7°F15.9°C 75% 5.4 mph NE8.7 kmh NE 8.3 mph13.4 kmh 29.95 in1014.2 mb 0.01 in0.3 mm 0.00 in0.0 mm 0.02 in0.5 mm
11:40 AM 68.0°F20.0°C 60.2°F15.7°C 76% 3.8 mph SE6.1 kmh SE 7.6 mph12.2 kmh 29.94 in1013.9 mb 0.00 in0.0 mm 0.00 in0.0 mm 0.02 in0.5 mm
11:50 AM 68.0°F20.0°C 60.5°F15.8°C 77% 3.8 mph SSE6.1 kmh SSE 10.7 mph17.2 kmh 29.94 in1013.9 mb 0.00 in0.0 mm 0.00 in0.0 mm 0.02 in0.5 mm
12:00 PM 68.5°F20.3°C 60.3°F15.7°C 75% 8.3 mph SE13.4 kmh SE 13.0 mph20.9 kmh 29.95 in1014.2 mb 0.00 in0.0 mm 0.00 in0.0 mm 0.02 in0.5 mm
12:10 PM 68.0°F20.0°C 59.8°F15.4°C 75% 6.9 mph SE11.1 kmh SE 12.1 mph19.5 kmh 29.95 in1014.2 mb 0.00 in0.0 mm 0.00 in0.0 mm 0.02 in0.5 mm
12:20 PM 68.2°F20.1°C 60.4°F15.8°C 76% 6.9 mph SE11.1 kmh SE 9.8 mph15.8 kmh 29.94 in1013.9 mb 0.00 in0.0 mm 0.00 in0.0 mm 0.02 in0.5 mm
12:30 PM 67.8°F19.9°C 60.4°F15.8°C 77% 6.0 mph SE9.7 kmh SE 10.7 mph17.2 kmh 29.94 in1013.9 mb 0.00 in0.0 mm 0.00 in0.0 mm 0.02 in0.5 mm
12:40 PM 68.9°F20.5°C 60.7°F15.9°C 75% 5.4 mph SE8.7 kmh SE 9.2 mph14.8 kmh 29.94 in1013.9 mb 0.00 in0.0 mm 0.00 in0.0 mm 0.02 in0.5 mm
12:50 PM 68.7°F20.4°C 60.9°F16.1°C 76% 7.6 mph SE12.2 kmh SE 11.4 mph18.3 kmh 29.93 in1013.5 mb 0.00 in0.0 mm 0.00 in0.0 mm 0.02 in0.5 mm
01:00 PM 69.4°F20.8°C 61.2°F16.2°C 75% 5.4 mph ESE8.7 kmh ESE 10.7 mph17.2 kmh 29.93 in1013.5 mb 0.00 in0.0 mm 0.00 in0.0 mm 0.02 in0.5 mm
01:10 PM 69.6°F20.9°C 61.0°F16.1°C 74% 5.4 mph SE8.7 kmh SE 10.7 mph17.2 kmh 29.92 in1013.2 mb 0.00 in0.0 mm 0.00 in0.0 mm 0.02 in0.5 mm
01:20 PM 70.2°F21.2°C 60.7°F15.9°C 72% 4.5 mph SE7.2 kmh SE 10.7 mph17.2 kmh 29.92 in1013.2 mb 0.00 in0.0 mm 0.00 in0.0 mm 0.02 in0.5 mm
01:30 PM 70.0°F21.1°C 61.3°F16.3°C 74% 4.5 mph ESE7.2 kmh ESE 10.7 mph17.2 kmh 29.92 in1013.2 mb 0.00 in0.0 mm 0.00 in0.0 mm 0.02 in0.5 mm
01:40 PM 71.2°F21.8°C 61.8°F16.6°C 72% 6.0 mph SE9.7 kmh SE 10.7 mph17.2 kmh 29.92 in1013.2 mb 0.00 in0.0 mm 0.00 in0.0 mm 0.02 in0.5 mm
01:50 PM 69.6°F20.9°C 61.0°F16.1°C 74% 6.9 mph SE11.1 kmh SE 12.1 mph19.5 kmh 29.93 in1013.5 mb 0.00 in0.0 mm 0.00 in0.0 mm 0.02 in0.5 mm
02:00 PM 69.4°F20.8°C 61.2°F16.2°C 75% 6.9 mph ESE11.1 kmh ESE 12.1 mph19.5 kmh 29.92 in1013.2 mb 0.00 in0.0 mm 0.00 in0.0 mm 0.02 in0.5 mm
02:10 PM 69.4°F20.8°C 61.2°F16.2°C 75% 6.9 mph E11.1 kmh E 15.2 mph24.5 kmh 29.92 in1013.2 mb 0.00 in0.0 mm 0.00 in0.0 mm 0.02 in0.5 mm
02:20 PM 71.6°F22.0°C 62.1°F16.7°C 72% 3.8 mph SE6.1 kmh SE 10.7 mph17.2 kmh 29.91 in1012.9 mb 0.00 in0.0 mm 0.00 in0.0 mm 0.02 in0.5 mm
02:30 PM 72.0°F22.2°C 61.7°F16.5°C 70% 4.5 mph ESE7.2 kmh ESE 9.8 mph15.8 kmh 29.91 in1012.9 mb 0.00 in0.0 mm 0.00 in0.0 mm 0.02 in0.5 mm
02:40 PM 71.4°F21.9°C 62.0°F16.7°C 72% 6.9 mph SE11.1 kmh SE 11.4 mph18.3 kmh 29.91 in1012.9 mb 0.00 in0.0 mm 0.00 in0.0 mm 0.02 in0.5 mm
02:50 PM 72.7°F22.6°C 61.5°F16.4°C 68% 7.6 mph SE12.2 kmh SE 13.0 mph20.9 kmh 29.91 in1012.9 mb 0.00 in0.0 mm 0.00 in0.0 mm 0.02 in0.5 mm
03:00 PM 70.3°F21.3°C 62.1°F16.7°C 75% 6.9 mph SE11.1 kmh SE 15.9 mph25.6 kmh 29.90 in1012.5 mb 0.00 in0.0 mm 0.00 in0.0 mm 0.02 in0.5 mm
03:10 PM 68.7°F20.4°C 61.2°F16.2°C 77% 6.9 mph SE11.1 kmh SE 14.5 mph23.3 kmh 29.90 in1012.5 mb 0.00 in0.0 mm 0.00 in0.0 mm 0.02 in0.5 mm
03:40 PM 69.1°F20.6°C 62.0°F16.7°C 78% 4.5 mph SE7.2 kmh SE 11.4 mph18.3 kmh 29.89 in1012.2 mb 0.00 in0.0 mm 0.00 in0.0 mm 0.02 in0.5 mm
03:50 PM 68.7°F20.4°C 61.2°F16.2°C 77% 7.6 mph SE12.2 kmh SE 10.7 mph17.2 kmh 29.89 in1012.2 mb 0.00 in0.0 mm 0.00 in0.0 mm 0.02 in0.5 mm
04:00 PM 68.0°F20.0°C 60.9°F16.1°C 78% 5.4 mph SE8.7 kmh SE 9.8 mph15.8 kmh 29.89 in1012.2 mb 0.00 in0.0 mm 0.00 in0.0 mm 0.02 in0.5 mm
04:10 PM 66.9°F19.4°C 60.9°F16.1°C 81% 4.5 mph ESE7.2 kmh ESE 10.7 mph17.2 kmh 29.89 in1012.2 mb 0.00 in0.0 mm 0.00 in0.0 mm 0.02 in0.5 mm
04:20 PM 66.2°F19.0°C 60.9°F16.1°C 83% 3.8 mph SE6.1 kmh SE 10.7 mph17.2 kmh 29.88 in1011.9 mb 0.00 in0.0 mm 0.00 in0.0 mm 0.02 in0.5 mm
04:30 PM 65.8°F18.8°C 61.2°F16.2°C 85% 3.1 mph SE5.0 kmh SE 9.8 mph15.8 kmh 29.88 in1011.9 mb 0.00 in0.0 mm 0.00 in0.0 mm 0.02 in0.5 mm
04:40 PM 65.1°F18.4°C 60.5°F15.8°C 85% 4.5 mph SE7.2 kmh SE 9.8 mph15.8 kmh 29.89 in1012.2 mb 0.00 in0.0 mm 0.00 in0.0 mm 0.02 in0.5 mm
04:50 PM 64.6°F18.1°C 60.3°F15.7°C 86% 4.5 mph ESE7.2 kmh ESE 7.6 mph12.2 kmh 29.88 in1011.9 mb 0.00 in0.0 mm 0.00 in0.0 mm 0.02 in0.5 mm
05:00 PM 64.4°F18.0°C 60.8°F16.0°C 88% 6.0 mph SE9.7 kmh SE 7.6 mph12.2 kmh 29.88 in1011.9 mb 0.00 in0.0 mm 0.00 in0.0 mm 0.02 in0.5 mm
05:10 PM 63.9°F17.7°C 60.9°F16.1°C 90% 2.2 mph SE3.5 kmh SE 7.6 mph12.2 kmh 29.87 in1011.5 mb 0.01 in0.3 mm 0.06 in1.5 mm 0.04 in1.0 mm
05:20 PM 63.7°F17.6°C 61.0°F16.1°C 91% Calm Calm 3.1 mph5.0 kmh 29.88 in1011.9 mb 0.01 in0.3 mm 0.00 in0.0 mm 0.04 in1.0 mm
05:30 PM 63.5°F17.5°C 60.8°F16.0°C 91% Calm Calm 0.7 mph1.1 kmh 29.89 in1012.2 mb 0.01 in0.3 mm 0.00 in0.0 mm 0.04 in1.0 mm
05:40 PM 63.5°F17.5°C 61.2°F16.2°C 92% Calm Calm 3.1 mph5.0 kmh 29.89 in1012.2 mb 0.02 in0.5 mm 0.06 in1.5 mm 0.05 in1.3 mm
05:50 PM 63.1°F17.3°C 61.7°F16.5°C 95% 1.6 mph NW2.6 kmh NW 6.0 mph9.7 kmh 29.89 in1012.2 mb 0.04 in1.0 mm 0.12 in3.0 mm 0.06 in1.5 mm
06:00 PM 62.6°F17.0°C 61.5°F16.4°C 96% 1.6 mph NW2.6 kmh NW 3.8 mph6.1 kmh 29.89 in1012.2 mb 0.04 in1.0 mm 0.00 in0.0 mm 0.06 in1.5 mm
06:10 PM 62.4°F16.9°C 61.6°F16.4°C 97% 3.1 mph N5.0 kmh N 3.1 mph5.0 kmh 29.89 in1012.2 mb 0.05 in1.3 mm 0.06 in1.5 mm 0.08 in2.0 mm
06:20 PM 61.9°F16.6°C 61.3°F16.3°C 98% 2.2 mph NNW3.5 kmh NNW 5.4 mph8.7 kmh 29.89 in1012.2 mb 0.05 in1.3 mm 0.00 in0.0 mm 0.08 in2.0 mm
06:30 PM 61.7°F16.5°C 61.1°F16.2°C 98% 1.6 mph NW2.6 kmh NW 5.4 mph8.7 kmh 29.89 in1012.2 mb 0.05 in1.3 mm 0.00 in0.0 mm 0.08 in2.0 mm
06:40 PM 61.5°F16.4°C 61.0°F16.1°C 98% Calm Calm 2.2 mph3.5 kmh 29.89 in1012.2 mb 0.06 in1.5 mm 0.06 in1.5 mm 0.11 in2.8 mm
06:50 PM 61.3°F16.3°C 60.8°F16.0°C 98% Calm Calm 3.1 mph5.0 kmh 29.89 in1012.2 mb 0.08 in2.0 mm 0.12 in3.0 mm 0.14 in3.6 mm
07:00 PM 61.2°F16.2°C 60.6°F15.9°C 98% 0.7 mph NNW1.1 kmh NNW 5.4 mph8.7 kmh 29.89 in1012.2 mb 0.08 in2.0 mm 0.00 in0.0 mm 0.14 in3.6 mm
07:10 PM 61.0°F16.1°C 60.4°F15.8°C 98% Calm Calm 5.4 mph8.7 kmh 29.89 in1012.2 mb 0.06 in1.5 mm 0.00 in0.0 mm 0.14 in3.6 mm
07:20 PM 60.8°F16.0°C 60.2°F15.7°C 98% 0.7 mph N1.1 kmh N 3.1 mph5.0 kmh 29.90 in1012.5 mb 0.06 in1.5 mm 0.00 in0.0 mm 0.14 in3.6 mm
07:30 PM 60.8°F16.0°C 60.2°F15.7°C 98% Calm Calm 3.1 mph5.0 kmh 29.90 in1012.5 mb 0.05 in1.3 mm 0.00 in0.0 mm 0.14 in3.6 mm
07:40 PM 60.8°F16.0°C 60.2°F15.7°C 98% Calm Calm -- 29.90 in1012.5 mb 0.02 in0.5 mm 0.00 in0.0 mm 0.14 in3.6 mm
07:50 PM 60.8°F16.0°C 60.2°F15.7°C 98% Calm Calm -- 29.90 in1012.5 mb 0.00 in0.0 mm 0.00 in0.0 mm 0.14 in3.6 mm
08:00 PM 60.8°F16.0°C 60.2°F15.7°C 98% Calm Calm 2.2 mph3.5 kmh 29.91 in1012.9 mb 0.00 in0.0 mm 0.00 in0.0 mm 0.14 in3.6 mm
08:10 PM 60.6°F15.9°C 60.4°F15.8°C 99% Calm Calm -- 29.90 in1012.5 mb 0.00 in0.0 mm 0.00 in0.0 mm 0.14 in3.6 mm
08:20 PM 60.4°F15.8°C 60.2°F15.7°C 99% Calm Calm 4.5 mph7.2 kmh 29.91 in1012.9 mb 0.00 in0.0 mm 0.00 in0.0 mm 0.14 in3.6 mm
08:30 PM 60.4°F15.8°C 60.2°F15.7°C 99% Calm Calm 3.8 mph6.1 kmh 29.91 in1012.9 mb 0.00 in0.0 mm 0.00 in0.0 mm 0.14 in3.6 mm
08:40 PM 60.4°F15.8°C 60.2°F15.7°C 99% Calm Calm 3.1 mph5.0 kmh 29.91 in1012.9 mb 0.00 in0.0 mm 0.00 in0.0 mm 0.14 in3.6 mm
08:50 PM 60.6°F15.9°C 60.4°F15.8°C 99% Calm Calm -- 29.91 in1012.9 mb 0.00 in0.0 mm 0.00 in0.0 mm 0.14 in3.6 mm
09:00 PM 60.4°F15.8°C 60.2°F15.7°C 99% Calm Calm -- 29.91 in1012.9 mb 0.00 in0.0 mm 0.00 in0.0 mm 0.14 in3.6 mm
09:10 PM 60.4°F15.8°C 60.2°F15.7°C 99% Calm Calm -- 29.91 in1012.9 mb 0.00 in0.0 mm 0.00 in0.0 mm 0.14 in3.6 mm
09:20 PM 60.4°F15.8°C 60.2°F15.7°C 99% Calm Calm -- 29.92 in1013.2 mb 0.00 in0.0 mm 0.00 in0.0 mm 0.14 in3.6 mm
09:30 PM 60.4°F15.8°C 60.2°F15.7°C 99% Calm Calm -- 29.92 in1013.2 mb 0.00 in0.0 mm 0.00 in0.0 mm 0.14 in3.6 mm
09:40 PM 60.4°F15.8°C 60.2°F15.7°C 99% Calm Calm -- 29.91 in1012.9 mb 0.00 in0.0 mm 0.00 in0.0 mm 0.14 in3.6 mm
09:50 PM 60.4°F15.8°C 60.2°F15.7°C 99% Calm Calm -- 29.91 in1012.9 mb 0.00 in0.0 mm 0.00 in0.0 mm 0.14 in3.6 mm
10:00 PM 60.4°F15.8°C 60.2°F15.7°C 99% Calm Calm -- 29.91 in1012.9 mb 0.00 in0.0 mm 0.00 in0.0 mm 0.14 in3.6 mm
10:10 PM 60.4°F15.8°C 60.2°F15.7°C 99% Calm Calm -- 29.90 in1012.5 mb 0.00 in0.0 mm 0.00 in0.0 mm 0.14 in3.6 mm
10:20 PM 60.3°F15.7°C 60.0°F15.6°C 99% Calm Calm -- 29.91 in1012.9 mb 0.00 in0.0 mm 0.00 in0.0 mm 0.14 in3.6 mm
10:30 PM 60.1°F15.6°C 59.8°F15.4°C 99% Calm Calm -- 29.91 in1012.9 mb 0.00 in0.0 mm 0.00 in0.0 mm 0.14 in3.6 mm
10:40 PM 60.1°F15.6°C 59.8°F15.4°C 99% Calm Calm -- 29.91 in1012.9 mb 0.00 in0.0 mm 0.00 in0.0 mm 0.14 in3.6 mm
10:50 PM 60.1°F15.6°C 59.8°F15.4°C 99% Calm Calm -- 29.91 in1012.9 mb 0.00 in0.0 mm 0.00 in0.0 mm 0.14 in3.6 mm
11:00 PM 60.3°F15.7°C 60.0°F15.6°C 99% Calm Calm -- 29.91 in1012.9 mb 0.00 in0.0 mm 0.00 in0.0 mm 0.10 in2.5 mm
11:10 PM 60.3°F15.7°C 60.0°F15.6°C 99% Calm Calm -- 29.91 in1012.9 mb 0.00 in0.0 mm 0.00 in0.0 mm 0.10 in2.5 mm
11:20 PM 60.1°F15.6°C 59.8°F15.4°C 99% Calm Calm -- 29.90 in1012.5 mb 0.00 in0.0 mm 0.00 in0.0 mm 0.10 in2.5 mm
11:30 PM 60.1°F15.6°C 59.8°F15.4°C 99% Calm Calm -- 29.89 in1012.2 mb 0.00 in0.0 mm 0.00 in0.0 mm 0.10 in2.5 mm
11:40 PM 60.1°F15.6°C 59.8°F15.4°C 99% Calm Calm -- 29.90 in1012.5 mb 0.00 in0.0 mm 0.00 in0.0 mm 0.10 in2.5 mm
11:50 PM 60.1°F15.6°C 59.8°F15.4°C 99% Calm Calm -- 29.89 in1012.2 mb 0.00 in0.0 mm 0.00 in0.0 mm 0.10 in2.5 mm